createdAt,value
2018-03-17T00:01:18.209Z,10.34
2018-03-17T00:03:46.656Z,10.31
2018-03-17T00:06:14.248Z,10.26
2018-03-17T00:08:41.813Z,10.34
2018-03-17T00:11:09.403Z,10.58
2018-03-17T00:13:37.008Z,10.41
2018-03-17T00:16:04.564Z,10.23
2018-03-17T00:18:32.117Z,10.76
2018-03-17T00:20:59.712Z,11.28
2018-03-17T00:23:27.268Z,11.69
2018-03-17T00:25:54.851Z,11.49
2018-03-17T00:28:22.395Z,11.25
2018-03-17T00:30:49.987Z,11.14
2018-03-17T00:33:17.583Z,11.32
2018-03-17T00:35:45.133Z,11.60
2018-03-17T00:38:12.719Z,11.72
2018-03-17T00:40:40.316Z,12.07
2018-03-17T00:43:07.912Z,12.26
2018-03-17T00:45:35.889Z,12.04
2018-03-17T00:48:03.439Z,12.23
2018-03-17T00:50:31.060Z,12.40
2018-03-17T00:52:58.607Z,12.34
2018-03-17T00:55:26.200Z,12.26
2018-03-17T00:57:53.852Z,12.32
2018-03-17T01:00:21.451Z,12.53
2018-03-17T01:02:49.058Z,12.34
2018-03-17T01:05:16.617Z,12.29
2018-03-17T01:07:44.203Z,12.14
2018-03-17T01:10:12.394Z,11.95
2018-03-17T01:12:39.975Z,11.72
2018-03-17T01:15:07.741Z,11.81
2018-03-17T01:17:35.506Z,11.18
2018-03-17T01:20:03.056Z,11.48
2018-03-17T01:22:31.588Z,11.81
2018-03-17T01:24:59.135Z,11.93
2018-03-17T01:27:27.253Z,11.86
2018-03-17T01:29:55.419Z,11.98
2018-03-17T01:32:22.967Z,11.71
2018-03-17T01:34:50.514Z,11.51
2018-03-17T01:37:18.365Z,11.52
2018-03-17T01:39:45.919Z,11.34
2018-03-17T01:42:13.472Z,10.80
2018-03-17T01:44:41.069Z,11.26
2018-03-17T01:47:08.660Z,11.59
2018-03-17T01:49:36.207Z,11.86
2018-03-17T01:52:04.334Z,11.32
2018-03-17T01:54:31.974Z,10.23
2018-03-17T01:56:59.599Z,10.57
2018-03-17T01:59:27.171Z,10.12
2018-03-17T02:01:54.762Z,10.06
2018-03-17T02:04:22.321Z,9.88
2018-03-17T02:06:50.020Z,9.38
2018-03-17T02:09:17.603Z,9.25
2018-03-17T02:11:46.183Z,9.55
2018-03-17T02:14:14.149Z,9.27
2018-03-17T02:16:41.744Z,9.21
2018-03-17T02:19:09.345Z,9.16
2018-03-17T02:21:36.922Z,9.43
2018-03-17T02:24:04.482Z,9.36
2018-03-17T02:26:32.396Z,9.45
2018-03-17T02:28:59.991Z,9.60
2018-03-17T02:31:27.544Z,9.95
2018-03-17T02:33:55.112Z,10.00
2018-03-17T02:36:22.698Z,10.42
2018-03-17T02:38:50.246Z,10.50
2018-03-17T02:41:17.835Z,10.29
2018-03-17T02:43:45.392Z,9.95
2018-03-17T02:46:13.250Z,10.02
2018-03-17T02:48:40.805Z,10.52
2018-03-17T02:51:08.390Z,10.96
2018-03-17T02:53:35.946Z,10.72
2018-03-17T02:56:03.535Z,9.99
2018-03-17T02:58:31.128Z,10.45
2018-03-17T03:00:58.675Z,10.21
2018-03-17T03:03:26.232Z,10.51
2018-03-17T03:05:53.828Z,10.86
2018-03-17T03:08:21.423Z,11.20
2018-03-17T03:10:48.975Z,11.11
2018-03-17T03:13:16.562Z,11.12
2018-03-17T03:15:44.120Z,11.11
2018-03-17T03:18:11.675Z,10.48
2018-03-17T03:20:39.288Z,10.83
2018-03-17T03:23:06.881Z,10.53
2018-03-17T03:25:34.431Z,10.41
2018-03-17T03:28:02.149Z,10.36
2018-03-17T03:30:30.457Z,10.24
2018-03-17T03:32:58.004Z,9.78
2018-03-17T03:35:25.560Z,10.27
2018-03-17T03:37:53.160Z,10.69
2018-03-17T03:40:20.764Z,10.10
2018-03-17T03:42:48.708Z,9.74
2018-03-17T03:45:16.586Z,10.03
2018-03-17T03:47:44.154Z,10.07
2018-03-17T03:50:12.030Z,9.54
2018-03-17T03:52:39.570Z,9.44
2018-03-17T03:55:07.155Z,9.31
2018-03-17T03:57:34.765Z,9.18
2018-03-17T04:00:02.324Z,9.21
2018-03-17T04:02:29.947Z,9.17
2018-03-17T04:04:57.488Z,8.96
2018-03-17T04:07:25.061Z,8.86
2018-03-17T04:09:52.617Z,9.08
2018-03-17T04:12:20.201Z,9.14
2018-03-17T04:14:47.739Z,9.08
2018-03-17T04:17:15.331Z,9.04
2018-03-17T04:19:42.885Z,9.23
2018-03-17T04:22:10.757Z,9.37
2018-03-17T04:24:38.897Z,9.77
2018-03-17T04:27:06.486Z,10.12
2018-03-17T04:29:34.065Z,9.78
2018-03-17T04:32:02.091Z,9.55
2018-03-17T04:34:29.627Z,9.29
2018-03-17T04:36:57.217Z,9.57
2018-03-17T04:39:25.265Z,9.46
2018-03-17T04:41:52.847Z,9.70
2018-03-17T04:44:20.437Z,10.27
2018-03-17T04:46:48.077Z,10.08
2018-03-17T04:49:15.870Z,10.30
2018-03-17T04:51:43.461Z,9.93
2018-03-17T04:54:11.056Z,9.80
2018-03-17T04:56:38.595Z,9.77
2018-03-17T04:59:06.183Z,9.87
2018-03-17T05:01:33.741Z,10.14
2018-03-17T05:04:01.356Z,10.37
2018-03-17T05:06:29.410Z,9.93
2018-03-17T05:08:56.972Z,10.32
2018-03-17T05:11:25.310Z,10.67
2018-03-17T05:13:52.892Z,10.97
2018-03-17T05:16:20.501Z,11.21
2018-03-17T05:18:48.109Z,11.48
2018-03-17T05:21:15.656Z,11.67
2018-03-17T05:23:43.217Z,11.39
2018-03-17T05:26:10.813Z,11.57
2018-03-17T05:28:38.377Z,11.80
2018-03-17T05:31:05.980Z,11.63
2018-03-17T05:33:33.832Z,11.37
2018-03-17T05:36:01.947Z,10.86
2018-03-17T05:38:29.561Z,10.46
2018-03-17T05:40:57.173Z,10.98
2018-03-17T05:43:24.748Z,10.41
2018-03-17T05:45:52.364Z,10.68
2018-03-17T05:48:19.955Z,10.77
2018-03-17T05:50:47.509Z,10.62
2018-03-17T05:53:15.111Z,10.70
2018-03-17T05:55:42.947Z,10.37
2018-03-17T05:58:10.533Z,10.22
2018-03-17T06:00:38.659Z,9.91
2018-03-17T06:03:06.224Z,10.19
2018-03-17T06:05:33.784Z,10.82
2018-03-17T06:08:01.376Z,10.62
2018-03-17T06:10:28.918Z,10.54
2018-03-17T06:12:56.521Z,10.52
2018-03-17T06:15:24.119Z,10.42
2018-03-17T06:17:51.662Z,10.51
2018-03-17T06:20:19.387Z,10.65
2018-03-17T06:22:46.987Z,11.36
2018-03-17T06:25:15.096Z,11.53
2018-03-17T06:27:42.695Z,11.18
2018-03-17T06:30:12.244Z,10.92
2018-03-17T06:32:39.840Z,10.92
2018-03-17T06:35:07.405Z,10.96
2018-03-17T06:37:35.001Z,10.90
2018-03-17T06:40:02.552Z,11.19
2018-03-17T06:42:30.169Z,11.20
2018-03-17T06:44:58.171Z,11.21
2018-03-17T06:47:26.500Z,11.64
2018-03-17T06:49:54.084Z,12.05
2018-03-17T06:52:23.315Z,12.03
2018-03-17T06:54:50.926Z,12.28
2018-03-17T06:57:18.608Z,12.54
2018-03-17T06:59:47.269Z,12.48
2018-03-17T07:02:14.864Z,12.57
2018-03-17T07:04:43.632Z,12.03
2018-03-17T07:07:11.227Z,11.87
2018-03-17T07:09:40.123Z,12.22
2018-03-17T07:12:08.672Z,12.72
2018-03-17T07:14:36.274Z,12.66
2018-03-17T07:17:03.889Z,13.04
2018-03-17T07:19:31.441Z,13.74
2018-03-17T07:21:59.028Z,13.62
2018-03-17T07:24:27.488Z,14.13
2018-03-17T07:26:55.437Z,13.92
2018-03-17T07:29:22.984Z,14.13
2018-03-17T07:31:50.535Z,14.16
2018-03-17T07:34:18.644Z,14.30
2018-03-17T07:36:46.202Z,14.43
2018-03-17T07:39:13.820Z,14.47
2018-03-17T07:41:41.736Z,13.79
2018-03-17T07:44:09.805Z,14.05
2018-03-17T07:46:37.357Z,14.32
2018-03-17T07:49:05.516Z,14.64
2018-03-17T07:51:33.101Z,14.94
2018-03-17T07:54:00.691Z,14.75
2018-03-17T07:56:28.240Z,14.33
2018-03-17T07:58:55.836Z,14.41
2018-03-17T08:01:23.397Z,14.56
2018-03-17T08:03:51.809Z,14.74
2018-03-17T08:06:19.647Z,14.82
2018-03-17T08:08:47.197Z,14.99
2018-03-17T08:11:14.904Z,15.17
2018-03-17T08:13:42.978Z,15.19
2018-03-17T08:16:10.577Z,15.13
2018-03-17T08:18:39.067Z,14.99
2018-03-17T08:21:06.628Z,15.21
2018-03-17T08:23:34.222Z,15.46
2018-03-17T08:26:01.786Z,15.63
2018-03-17T08:28:29.387Z,15.77
2018-03-17T08:30:56.949Z,15.86
2018-03-17T08:33:24.499Z,15.97
2018-03-17T08:35:53.287Z,15.77
2018-03-17T08:38:21.076Z,15.90
2018-03-17T08:40:48.800Z,16.04
2018-03-17T08:43:17.536Z,16.19
2018-03-17T08:45:45.097Z,16.28
2018-03-17T08:48:13.286Z,16.32
2018-03-17T08:50:40.841Z,16.37
2018-03-17T08:53:09.467Z,16.46
2018-03-17T08:55:37.000Z,16.56
2018-03-17T08:58:04.592Z,16.57
2018-03-17T09:00:32.200Z,15.90
2018-03-17T09:02:59.801Z,15.45
2018-03-17T09:05:30.010Z,15.14
2018-03-17T09:07:57.561Z,15.02
2018-03-17T09:10:25.990Z,15.22
2018-03-17T09:12:53.973Z,15.38
2018-03-17T09:15:23.220Z,15.51
2018-03-17T09:17:51.184Z,15.60
2018-03-17T09:20:19.249Z,15.54
2018-03-17T09:22:46.844Z,15.60
2018-03-17T09:25:14.450Z,15.63
2018-03-17T09:27:42.373Z,15.69
2018-03-17T09:30:09.954Z,15.69
2018-03-17T09:32:37.499Z,15.69
2018-03-17T09:35:05.091Z,15.66
2018-03-17T09:37:32.639Z,15.61
2018-03-17T09:40:00.249Z,15.56
2018-03-17T09:42:27.799Z,15.56
2018-03-17T09:44:55.757Z,15.67
2018-03-17T09:47:23.364Z,15.82
2018-03-17T09:49:50.921Z,15.83
2018-03-17T09:52:18.585Z,16.01
2018-03-17T09:54:46.158Z,16.19
2018-03-17T09:57:13.748Z,16.35
2018-03-17T09:59:41.313Z,16.50
2018-03-17T10:02:08.904Z,16.60
2018-03-17T10:04:37.004Z,16.73
2018-03-17T10:07:05.413Z,16.85
2018-03-17T10:09:32.977Z,16.95
2018-03-17T10:12:00.572Z,17.06
2018-03-17T10:14:28.623Z,17.16
2018-03-17T10:16:56.212Z,17.23
2018-03-17T10:19:23.817Z,17.30
2018-03-17T10:21:51.363Z,17.35
2018-03-17T10:24:18.956Z,17.39
2018-03-17T10:26:47.413Z,17.43
2018-03-17T10:29:14.973Z,17.48
2018-03-17T10:31:43.391Z,17.47
2018-03-17T10:34:10.970Z,17.56
2018-03-17T10:36:38.568Z,17.63
2018-03-17T10:39:07.456Z,17.65
2018-03-17T10:41:36.012Z,17.71
2018-03-17T10:44:03.593Z,17.73
2018-03-17T10:46:31.186Z,17.74
2018-03-17T10:48:58.746Z,17.75
2018-03-17T10:51:26.357Z,17.77
2018-03-17T10:53:53.900Z,17.78
2018-03-17T10:56:21.533Z,17.80
2018-03-17T10:58:49.152Z,17.81
2018-03-17T11:01:20.515Z,17.85
2018-03-17T11:03:48.811Z,17.87
2018-03-17T11:06:16.459Z,17.87
2018-03-17T11:08:44.390Z,17.89
2018-03-17T11:11:12.815Z,17.89
2018-03-17T11:13:40.372Z,17.91
2018-03-17T11:16:07.971Z,17.98
2018-03-17T11:18:35.533Z,18.04
2018-03-17T11:21:03.124Z,18.06
2018-03-17T11:23:31.705Z,18.06
2018-03-17T11:26:00.139Z,18.09
2018-03-17T11:28:27.691Z,18.09
2018-03-17T11:30:55.260Z,18.10
2018-03-17T11:33:22.865Z,18.13
2018-03-17T11:35:50.451Z,18.14
2018-03-17T11:38:18.022Z,18.12
2018-03-17T11:40:45.688Z,18.05
2018-03-17T11:43:13.229Z,18.09
2018-03-17T11:45:40.788Z,18.12
2018-03-17T11:48:08.524Z,18.15
2018-03-17T11:50:36.084Z,18.16
2018-03-17T11:53:03.671Z,18.17
2018-03-17T11:55:31.289Z,18.14
2018-03-17T11:57:58.837Z,18.14
2018-03-17T12:00:26.424Z,18.15
2018-03-17T12:02:55.346Z,18.14
2018-03-17T12:05:23.782Z,18.11
2018-03-17T12:07:51.374Z,18.08
2018-03-17T12:10:19.037Z,18.08
2018-03-17T12:12:46.877Z,18.06
2018-03-17T12:15:14.428Z,18.08
2018-03-17T12:17:42.915Z,18.06
2018-03-17T12:20:10.500Z,18.07
2018-03-17T12:22:38.060Z,18.07
2018-03-17T12:25:06.502Z,18.06
2018-03-17T12:27:34.109Z,18.07
2018-03-17T12:30:01.730Z,18.09
2018-03-17T12:32:29.320Z,18.13
2018-03-17T12:34:56.885Z,18.14
2018-03-17T12:37:24.491Z,18.12
2018-03-17T12:39:52.144Z,18.16
2018-03-17T12:42:19.704Z,18.15
2018-03-17T12:44:47.256Z,18.19
2018-03-17T12:47:14.853Z,18.19
2018-03-17T12:49:42.413Z,18.19
2018-03-17T12:52:10.017Z,18.16
2018-03-17T12:54:37.560Z,18.14
2018-03-17T12:57:05.471Z,18.12
2018-03-17T12:59:33.019Z,18.10
2018-03-17T13:02:00.614Z,18.08
2018-03-17T13:04:29.011Z,18.10
2018-03-17T13:06:56.603Z,18.12
2018-03-17T13:09:25.123Z,18.09
2018-03-17T13:11:53.207Z,18.08
2018-03-17T13:14:21.513Z,18.08
2018-03-17T13:16:49.113Z,18.04
2018-03-17T13:19:28.684Z,18.03
2018-03-17T13:21:57.129Z,18.12
2018-03-17T13:24:25.166Z,18.15
2018-03-17T13:27:04.630Z,18.16
2018-03-17T13:29:32.480Z,18.14
2018-03-17T13:32:00.033Z,18.16
2018-03-17T13:34:28.437Z,18.20
2018-03-17T13:37:07.774Z,18.21
2018-03-17T13:39:35.380Z,18.22
2018-03-17T13:42:03.823Z,18.26
2018-03-17T13:44:31.409Z,18.29
2018-03-17T13:46:59.935Z,18.29
2018-03-17T13:49:28.176Z,18.29
2018-03-17T13:51:56.512Z,18.29
2018-03-17T13:54:24.099Z,18.29
2018-03-17T13:56:51.684Z,18.29
2018-03-17T13:59:19.293Z,18.27
2018-03-17T14:01:47.864Z,18.27
2018-03-17T14:04:17.081Z,18.27
2018-03-17T14:06:44.656Z,18.28
2018-03-17T14:09:12.251Z,18.28
2018-03-17T14:11:39.853Z,18.28
2018-03-17T14:14:07.402Z,18.29
2018-03-17T14:16:35.201Z,18.29
2018-03-17T14:19:05.820Z,18.29
2018-03-17T14:21:33.411Z,18.27
2018-03-17T14:24:00.963Z,18.26
2018-03-17T14:26:28.544Z,18.26
2018-03-17T14:28:56.082Z,18.27
2018-03-17T14:31:23.692Z,18.27
2018-03-17T14:33:51.564Z,18.27
2018-03-17T14:36:19.122Z,18.29
2018-03-17T14:38:46.720Z,18.28
2018-03-17T14:41:14.273Z,18.28
2018-03-17T14:43:41.868Z,18.27
2018-03-17T14:46:10.340Z,18.23
2018-03-17T14:48:37.927Z,18.24
2018-03-17T14:51:07.421Z,18.21
2018-03-17T14:53:35.015Z,18.23
2018-03-17T14:56:02.625Z,18.25
2018-03-17T14:58:30.169Z,18.26
2018-03-17T15:00:57.712Z,18.26
2018-03-17T15:03:25.308Z,18.25
2018-03-17T15:05:54.036Z,18.23
2018-03-17T15:08:21.640Z,18.22
2018-03-17T15:10:50.089Z,18.22
2018-03-17T15:13:17.716Z,18.21
2018-03-17T15:15:45.312Z,18.21
2018-03-17T15:18:13.009Z,18.20
2018-03-17T15:20:43.131Z,18.19
2018-03-17T15:23:10.740Z,18.19
2018-03-17T15:25:38.357Z,18.18
2018-03-17T15:28:05.920Z,18.17
2018-03-17T15:30:33.503Z,18.15
2018-03-17T15:33:01.157Z,18.13
2018-03-17T15:35:29.273Z,18.13
2018-03-17T15:37:56.864Z,18.10
2018-03-17T15:40:24.447Z,18.09
2018-03-17T15:42:53.113Z,18.07
2018-03-17T15:45:20.712Z,18.05
2018-03-17T15:47:48.314Z,18.04
2018-03-17T15:50:15.921Z,18.01
2018-03-17T15:52:43.481Z,17.99
2018-03-17T15:55:11.080Z,17.96
2018-03-17T15:57:38.644Z,17.96
2018-03-17T16:00:06.247Z,17.93
2018-03-17T16:02:34.347Z,17.92
2018-03-17T16:05:01.940Z,17.90
2018-03-17T16:07:29.506Z,17.88
2018-03-17T16:09:57.131Z,17.85
2018-03-17T16:12:24.697Z,17.83
2018-03-17T16:14:52.244Z,17.82
2018-03-17T16:17:19.841Z,17.81
2018-03-17T16:19:48.015Z,17.78
2018-03-17T16:22:15.609Z,17.80
2018-03-17T16:24:43.178Z,17.78
2018-03-17T16:27:11.669Z,17.77
2018-03-17T16:29:39.213Z,17.78
2018-03-17T16:32:07.188Z,17.79
2018-03-17T16:34:34.754Z,17.84
2018-03-17T16:37:02.352Z,17.86
2018-03-17T16:39:29.921Z,17.82
2018-03-17T16:41:58.311Z,17.77
2018-03-17T16:44:26.469Z,17.76
2018-03-17T16:46:54.069Z,17.79
2018-03-17T16:49:22.592Z,17.78
2018-03-17T16:51:50.159Z,17.79
2018-03-17T16:54:17.740Z,18.02
2018-03-17T16:56:45.352Z,18.05
2018-03-17T16:59:12.952Z,18.20
2018-03-17T17:01:40.537Z,18.85
2018-03-17T17:04:08.667Z,19.09
2018-03-17T17:06:36.634Z,19.35
2018-03-17T17:09:04.900Z,19.48
2018-03-17T17:11:32.457Z,19.57
2018-03-17T17:14:00.030Z,19.61
2018-03-17T17:16:27.624Z,19.79
2018-03-17T17:18:55.177Z,20.10
2018-03-17T17:21:22.781Z,20.21
2018-03-17T17:23:50.814Z,20.26
2018-03-17T17:26:18.442Z,20.30
2018-03-17T17:28:46.321Z,20.24
2018-03-17T17:31:14.664Z,20.33
2018-03-17T17:33:42.270Z,20.23
2018-03-17T17:36:10.222Z,20.22
2018-03-17T17:38:38.526Z,20.25
2018-03-17T17:41:06.972Z,20.23
2018-03-17T17:43:34.568Z,20.14
2018-03-17T17:46:02.206Z,20.08
2018-03-17T17:48:29.800Z,20.05
2018-03-17T17:50:57.356Z,20.00
2018-03-17T17:53:24.907Z,19.99
2018-03-17T17:55:52.510Z,19.93
2018-03-17T17:58:20.591Z,19.79
2018-03-17T18:00:48.498Z,19.75
2018-03-17T18:03:17.181Z,19.70
2018-03-17T18:05:45.874Z,19.75
2018-03-17T18:08:14.259Z,19.73
2018-03-17T18:10:42.057Z,19.71
2018-03-17T18:13:11.500Z,19.62
2018-03-17T18:15:40.252Z,19.59
2018-03-17T18:18:09.084Z,19.52
2018-03-17T18:20:38.560Z,19.41
2018-03-17T18:23:07.698Z,19.27
2018-03-17T18:25:35.797Z,19.27
2018-03-17T18:28:04.800Z,19.48
2018-03-17T18:30:33.714Z,19.55
2018-03-17T18:33:02.069Z,19.51
2018-03-17T18:35:30.332Z,19.49
2018-03-17T18:37:58.525Z,19.41
2018-03-17T18:40:27.185Z,19.31
2018-03-17T18:42:55.959Z,19.23
2018-03-17T18:45:24.105Z,19.16
2018-03-17T18:47:52.686Z,19.11
2018-03-17T18:50:20.649Z,19.05
2018-03-17T18:52:49.405Z,18.94
2018-03-17T18:55:17.578Z,18.86
2018-03-17T18:57:45.460Z,18.80
2018-03-17T19:00:13.052Z,18.73
2018-03-17T19:02:41.840Z,18.74
2018-03-17T19:05:09.463Z,18.64
2018-03-17T19:07:37.775Z,18.53
2018-03-17T19:10:05.603Z,18.53
2018-03-17T19:12:33.927Z,18.61
2018-03-17T19:15:02.035Z,18.63
2018-03-17T19:17:29.627Z,18.70
2018-03-17T19:19:57.535Z,18.84
2018-03-17T19:22:25.419Z,18.78
2018-03-17T19:24:53.051Z,18.70
2018-03-17T19:27:21.420Z,18.63
2018-03-17T19:29:49.149Z,18.78
2018-03-17T19:32:17.149Z,18.82
2018-03-17T19:34:44.829Z,18.77
2018-03-17T19:37:15.727Z,18.71
2018-03-17T19:39:43.312Z,18.55
2018-03-17T19:42:10.873Z,18.53
2018-03-17T19:44:39.763Z,18.49
2018-03-17T19:47:08.155Z,18.41
2018-03-17T19:49:35.983Z,18.35
2018-03-17T19:52:03.965Z,18.27
2018-03-17T19:54:32.458Z,18.05
2018-03-17T19:57:00.510Z,18.02
2018-03-17T19:59:29.475Z,17.83
2018-03-17T20:01:57.661Z,17.90
2018-03-17T20:04:25.462Z,17.97
2018-03-17T20:06:53.021Z,18.21
2018-03-17T20:09:20.778Z,18.39
2018-03-17T20:11:48.885Z,18.49
2018-03-17T20:14:16.451Z,18.50
2018-03-17T20:16:44.532Z,18.30
2018-03-17T20:19:12.649Z,18.25
2018-03-17T20:21:40.233Z,18.21
2018-03-17T20:24:07.842Z,18.16
2018-03-17T20:26:36.009Z,18.10
2018-03-17T20:29:04.784Z,18.08
2018-03-17T20:31:32.849Z,18.11
2018-03-17T20:34:00.445Z,17.93
2018-03-17T20:36:28.507Z,17.92
2018-03-17T20:38:56.126Z,17.69
2018-03-17T20:41:24.989Z,17.57
2018-03-17T20:43:53.760Z,17.60
2018-03-17T20:46:21.306Z,17.58
2018-03-17T20:48:49.604Z,17.58
2018-03-17T20:51:17.214Z,17.53
2018-03-17T20:53:44.768Z,17.56
2018-03-17T20:56:12.332Z,17.54
2018-03-17T20:58:39.944Z,17.60
2018-03-17T21:01:08.733Z,17.63
2018-03-17T21:03:36.332Z,17.64
2018-03-17T21:06:03.875Z,17.65
2018-03-17T21:08:32.438Z,17.80
2018-03-17T21:11:00.630Z,17.71
2018-03-17T21:13:29.595Z,17.68
2018-03-17T21:15:57.185Z,17.71
2018-03-17T21:18:24.764Z,17.48
2018-03-17T21:20:52.625Z,17.55
2018-03-17T21:23:20.169Z,17.61
2018-03-17T21:25:48.052Z,17.63
2018-03-17T21:28:16.139Z,17.76
2018-03-17T21:30:43.731Z,17.89
2018-03-17T21:33:11.276Z,17.88
2018-03-17T21:35:39.577Z,17.71
2018-03-17T21:38:07.116Z,17.94
2018-03-17T21:40:34.654Z,18.17
2018-03-17T21:43:02.244Z,18.40
2018-03-17T21:45:29.804Z,18.58
2018-03-17T21:47:57.396Z,18.49
2018-03-17T21:50:25.005Z,18.40
2018-03-17T21:52:52.547Z,18.28
2018-03-17T21:55:20.135Z,18.18
2018-03-17T21:57:47.695Z,18.26
2018-03-17T22:00:15.795Z,18.33
2018-03-17T22:02:48.255Z,18.31
2018-03-17T22:05:15.854Z,18.32
2018-03-17T22:07:43.449Z,18.42
2018-03-17T22:10:11.383Z,18.48
2018-03-17T22:12:39.816Z,18.57
2018-03-17T22:15:07.915Z,18.55
2018-03-17T22:17:35.474Z,18.23
2018-03-17T22:20:03.072Z,18.11
2018-03-17T22:22:30.667Z,17.88
2018-03-17T22:24:58.214Z,17.79
2018-03-17T22:27:25.765Z,17.69
2018-03-17T22:29:53.359Z,17.56
2018-03-17T22:32:20.910Z,17.26
2018-03-17T22:34:48.455Z,17.24
2018-03-17T22:37:16.044Z,17.27
2018-03-17T22:39:43.593Z,17.29
2018-03-17T22:42:11.195Z,17.30
2018-03-17T22:44:38.752Z,17.19
2018-03-17T22:47:07.152Z,17.16
2018-03-17T22:49:34.761Z,16.95
2018-03-17T22:52:03.284Z,16.97
2018-03-17T22:54:30.873Z,17.02
2018-03-17T22:56:58.426Z,17.01
2018-03-17T22:59:26.021Z,16.59
2018-03-17T23:01:55.833Z,16.46
2018-03-17T23:04:23.514Z,16.54
2018-03-17T23:06:51.055Z,16.48
2018-03-17T23:09:18.657Z,16.51
2018-03-17T23:11:47.219Z,16.52
2018-03-17T23:14:14.759Z,16.43
2018-03-17T23:16:42.374Z,16.46
2018-03-17T23:19:09.924Z,16.54
2018-03-17T23:21:37.524Z,16.63
2018-03-17T23:24:05.979Z,16.69
2018-03-17T23:26:33.577Z,16.77
2018-03-17T23:29:01.160Z,16.78
2018-03-17T23:31:30.723Z,16.79
2018-03-17T23:33:58.788Z,16.78
2018-03-17T23:36:27.329Z,16.81
2018-03-17T23:38:55.126Z,16.82
2018-03-17T23:41:22.707Z,16.86
2018-03-17T23:43:50.302Z,16.80
2018-03-17T23:46:17.868Z,16.79
2018-03-17T23:48:45.484Z,16.80
2018-03-17T23:51:13.147Z,16.81
2018-03-17T23:53:40.750Z,16.76
2018-03-17T23:56:08.559Z,16.44
2018-03-17T23:58:36.131Z,16.50
